Time;durP1;ratioP1;P1;durP2;ratioP2;P2;SDS_P1;SDS_P2;PMS_P1;PMS_P2;Temp;Humidity;BMP_temperature;BMP_pressure;BME280_temperature;BME280_humidity;BME280_pressure;Samples;Min_cycle;Max_cycle;Signal;HPM_P1;HPM_P2
2022/06/04 00:01:30;;;;;;;10.30;10.00;;;17.40;99.90;;;;;;5081658;28;20234;-80
2022/06/04 00:03:58;;;;;;;10.50;10.20;;;17.30;99.90;;;;;;5081437;28;20222;-79
2022/06/04 00:06:29;;;;;;;10.63;10.32;;;17.30;99.90;;;;;;5081717;28;20233;-80
2022/06/04 00:08:56;;;;;;;10.73;10.43;;;17.30;99.90;;;;;;5079916;28;20230;-80
2022/06/04 00:19:37;;;;;;;10.70;10.40;;;17.00;99.90;;;;;;5081996;28;20236;-80
2022/06/04 00:22:09;;;;;;;10.80;10.50;;;17.00;99.90;;;;;;5081334;28;20321;-80
2022/06/04 00:24:38;;;;;;;10.70;10.40;;;17.00;99.90;;;;;;5081195;28;20245;-79
2022/06/04 00:27:06;;;;;;;10.70;10.40;;;17.00;99.90;;;;;;5081792;28;20257;-80
2022/06/04 00:29:36;;;;;;;10.80;10.50;;;17.00;99.90;;;;;;5081116;28;20321;-80
2022/06/04 00:32:04;;;;;;;10.65;10.35;;;17.00;99.90;;;;;;5081266;28;20321;-80
2022/06/04 00:34:34;;;;;;;10.75;10.45;;;17.00;99.90;;;;;;5083107;28;20226;-80
2022/06/04 00:37:03;;;;;;;10.68;10.38;;;16.90;99.90;;;;;;5082647;28;20317;-80
2022/06/04 00:39:46;;;;;;;10.80;10.40;;;16.90;99.90;;;;;;5081507;28;20322;-80
2022/06/04 00:46:19;;;;;;;10.77;10.45;;;16.90;99.90;;;;;;5079268;28;20291;-80
2022/06/04 00:48:49;;;;;;;10.90;10.50;;;16.90;99.90;;;;;;5080882;28;20238;-79
2022/06/04 00:51:19;;;;;;;10.70;10.40;;;16.90;99.90;;;;;;5080044;28;20329;-79
2022/06/04 00:53:47;;;;;;;10.77;10.48;;;16.90;99.90;;;;;;5080505;28;20234;-80
2022/06/04 00:59:32;;;;;;;10.70;10.40;;;17.00;99.90;;;;;;5080380;28;20221;-80
2022/06/04 01:02:11;;;;;;;10.70;10.40;;;17.00;99.90;;;;;;5080424;28;20276;-80
2022/06/04 01:04:55;;;;;;;10.60;10.30;;;17.00;99.90;;;;;;5080591;28;20253;-80
2022/06/04 01:07:43;;;;;;;10.45;10.15;;;17.10;99.90;;;;;;5080795;28;20223;-80
2022/06/04 01:10:40;;;;;;;10.68;10.38;;;17.00;99.90;;;;;;5080899;28;20285;-79
2022/06/04 01:16:30;;;;;;;10.82;10.43;;;17.10;99.90;;;;;;5080255;28;20244;-80
2022/06/04 01:19:26;;;;;;;10.95;10.55;;;17.00;99.90;;;;;;5080148;28;20273;-80
2022/06/04 01:22:12;;;;;;;11.10;10.70;;;17.00;99.90;;;;;;5080630;28;20321;-80
2022/06/04 01:25:01;;;;;;;11.00;10.60;;;17.10;99.90;;;;;;5080569;28;20316;-80
2022/06/04 01:27:38;;;;;;;10.82;10.45;;;17.10;99.90;;;;;;5080555;28;20290;-80
2022/06/04 01:30:17;;;;;;;10.70;10.40;;;17.00;99.90;;;;;;5080823;28;20230;-79
2022/06/04 01:32:54;;;;;;;10.90;10.50;;;17.10;99.90;;;;;;5080992;28;20248;-79
2022/06/04 01:35:26;;;;;;;10.52;10.23;;;17.10;99.90;;;;;;5082198;28;20747;-80
2022/06/04 01:38:02;;;;;;;10.63;10.32;;;17.10;99.90;;;;;;5083759;28;20246;-80
2022/06/04 01:43:45;;;;;;;10.77;10.45;;;17.10;99.90;;;;;;5071574;28;20233;-80
2022/06/04 01:46:23;;;;;;;10.70;10.40;;;17.20;99.90;;;;;;5081606;28;20331;-80
2022/06/04 01:48:56;;;;;;;10.98;10.57;;;17.20;99.90;;;;;;5081208;28;20246;-80
2022/06/04 01:51:32;;;;;;;10.60;10.30;;;17.20;99.90;;;;;;5080618;28;20284;-79
2022/06/04 01:54:09;;;;;;;10.85;10.45;;;17.20;99.90;;;;;;5081011;28;20293;-78
2022/06/04 01:56:41;;;;;;;11.15;10.75;;;17.20;99.90;;;;;;5081092;28;20237;-79
2022/06/04 01:59:18;;;;;;;10.70;10.40;;;17.20;99.90;;;;;;5080423;28;20408;-79
2022/06/04 02:01:48;;;;;;;11.07;10.68;;;17.20;99.90;;;;;;5080534;28;20320;-78
2022/06/04 02:04:25;;;;;;;10.73;10.43;;;17.20;99.90;;;;;;5080843;28;20224;-79
2022/06/04 02:09:49;;;;;;;10.60;10.30;;;17.30;99.90;;;;;;5080070;28;20222;-79
2022/06/04 02:12:19;;;;;;;10.80;10.45;;;17.20;99.90;;;;;;5080554;28;20281;-79
2022/06/04 02:15:00;;;;;;;10.65;10.35;;;17.30;99.90;;;;;;5081673;28;20314;-79
2022/06/04 02:17:29;;;;;;;10.73;10.43;;;17.30;99.90;;;;;;5080823;28;20334;-79
2022/06/04 02:19:57;;;;;;;10.65;10.35;;;17.20;99.90;;;;;;5080331;28;20249;-79
2022/06/04 02:22:26;;;;;;;10.85;10.45;;;17.20;99.90;;;;;;5080369;28;20222;-79
2022/06/04 02:24:55;;;;;;;10.80;10.45;;;17.10;99.90;;;;;;5081088;28;20226;-79
2022/06/04 02:27:24;;;;;;;10.57;10.27;;;17.10;99.90;;;;;;5080835;28;20230;-80
2022/06/04 02:29:58;;;;;;;10.70;10.40;;;17.10;99.90;;;;;;5079982;28;20219;-79
2022/06/04 02:32:51;;;;;;;10.70;10.40;;;17.00;99.90;;;;;;5082840;28;20226;-79
2022/06/04 02:35:29;;;;;;;10.88;10.50;;;17.00;99.90;;;;;;5083170;28;20287;-79
2022/06/04 02:38:06;;;;;;;10.60;10.30;;;17.00;99.90;;;;;;5083489;28;20234;-79
2022/06/04 02:40:46;;;;;;;10.63;10.32;;;17.00;99.90;;;;;;5083255;28;20226;-80
2022/06/04 02:43:26;;;;;;;10.65;10.35;;;17.00;99.90;;;;;;5083682;28;20240;-79
2022/06/04 02:46:12;;;;;;;10.55;10.25;;;17.00;99.90;;;;;;5083260;28;20234;-80
2022/06/04 02:48:43;;;;;;;10.50;10.20;;;17.00;99.90;;;;;;5084079;28;20221;-79
2022/06/04 02:51:21;;;;;;;10.55;10.25;;;17.00;99.90;;;;;;5083191;28;20300;-79
2022/06/04 02:53:50;;;;;;;10.50;10.20;;;17.10;99.90;;;;;;5084200;28;20261;-79
2022/06/04 02:56:27;;;;;;;10.50;10.20;;;17.00;99.90;;;;;;5083449;28;20260;-79
2022/06/04 02:59:06;;;;;;;10.60;10.30;;;17.00;99.90;;;;;;5083754;28;20252;-80
2022/06/04 03:01:43;;;;;;;10.60;10.30;;;17.00;99.90;;;;;;5084050;28;20237;-80
2022/06/04 03:04:13;;;;;;;11.00;10.60;;;17.00;99.90;;;;;;5083626;28;20265;-80
2022/06/04 03:06:42;;;;;;;11.00;10.60;;;16.90;99.90;;;;;;5083341;28;20230;-80
2022/06/04 03:09:21;;;;;;;11.07;10.68;;;16.90;99.90;;;;;;5083282;28;20241;-79
2022/06/04 03:11:51;;;;;;;11.00;10.60;;;16.80;99.90;;;;;;5083455;28;20230;-79
2022/06/04 03:14:20;;;;;;;10.82;10.43;;;16.80;99.90;;;;;;5083557;28;20250;-79
2022/06/04 03:16:51;;;;;;;11.00;10.60;;;16.80;99.90;;;;;;5083948;28;20230;-80
2022/06/04 03:19:19;;;;;;;11.00;10.60;;;16.90;99.90;;;;;;5083084;28;20297;-79
2022/06/04 03:21:48;;;;;;;11.00;10.60;;;16.90;99.90;;;;;;5083444;28;20286;-78
2022/06/04 03:24:20;;;;;;;11.00;10.60;;;16.80;99.90;;;;;;5083903;28;20234;-79
2022/06/04 03:26:47;;;;;;;11.25;10.85;;;16.90;99.90;;;;;;5083367;28;20260;-79
2022/06/04 03:29:17;;;;;;;11.10;10.70;;;16.90;99.90;;;;;;5083509;28;20253;-79
2022/06/04 03:31:46;;;;;;;11.23;10.82;;;16.90;99.90;;;;;;5083652;28;20230;-78
2022/06/04 03:34:18;;;;;;;11.10;10.70;;;16.90;99.90;;;;;;5083257;28;20226;-79
2022/06/04 03:36:46;;;;;;;11.05;10.65;;;16.90;99.90;;;;;;5083541;28;20260;-79
2022/06/04 03:39:13;;;;;;;11.13;10.73;;;16.90;99.90;;;;;;5082811;28;20284;-79
2022/06/04 03:41:43;;;;;;;11.10;10.70;;;16.90;99.90;;;;;;5082239;28;20292;-79
2022/06/04 03:44:12;;;;;;;10.85;10.45;;;16.90;99.90;;;;;;5083082;28;20250;-79
2022/06/04 03:46:42;;;;;;;10.98;10.57;;;17.00;99.90;;;;;;5083045;28;20233;-79
2022/06/04 03:49:11;;;;;;;10.77;10.43;;;17.00;99.90;;;;;;5083463;28;20234;-79
2022/06/04 03:51:53;;;;;;;10.68;10.38;;;17.00;99.90;;;;;;5082743;28;20262;-79
2022/06/04 03:54:52;;;;;;;10.90;10.50;;;17.00;99.90;;;;;;5083487;28;20226;-79
2022/06/04 03:59:55;;;;;;;10.88;10.48;;;17.00;99.90;;;;;;5083524;28;20226;-78
2022/06/04 04:02:23;;;;;;;10.82;10.43;;;16.90;99.90;;;;;;5083695;28;20236;-79
2022/06/04 04:04:52;;;;;;;10.85;10.45;;;16.80;99.90;;;;;;5083657;28;20214;-79
2022/06/04 04:10:10;;;;;;;11.10;10.70;;;16.70;99.90;;;;;;5085487;28;20301;-80
2022/06/04 04:12:40;;;;;;;11.10;10.70;;;16.70;99.90;;;;;;5086859;28;20252;-79
2022/06/04 04:15:10;;;;;;;10.60;10.30;;;16.70;99.90;;;;;;5087629;28;20221;-82
2022/06/04 04:17:39;;;;;;;11.02;10.63;;;16.70;99.90;;;;;;5091074;28;20226;-78
2022/06/04 04:20:18;;;;;;;10.63;10.32;;;16.70;99.90;;;;;;5092653;28;20234;-79
2022/06/04 04:22:56;;;;;;;11.10;10.70;;;16.60;99.90;;;;;;5093422;28;20286;-79
2022/06/04 04:25:32;;;;;;;11.00;10.60;;;16.70;99.90;;;;;;5092366;28;20284;-79
2022/06/04 04:28:01;;;;;;;10.85;10.48;;;16.70;99.90;;;;;;5093718;28;20243;-79
2022/06/04 04:30:34;;;;;;;10.98;10.57;;;16.80;99.90;;;;;;5092362;28;20221;-79
2022/06/04 04:33:03;;;;;;;11.00;10.60;;;16.80;99.90;;;;;;5091275;28;20238;-78
2022/06/04 04:35:38;;;;;;;11.20;10.80;;;16.80;99.90;;;;;;5095628;28;20234;-79
2022/06/04 04:38:11;;;;;;;11.05;10.65;;;16.80;99.90;;;;;;5091999;28;20248;-78
2022/06/04 04:40:42;;;;;;;10.90;10.50;;;16.80;99.90;;;;;;5099585;27;20246;-77
2022/06/04 04:43:09;;;;;;;10.88;10.50;;;16.80;99.90;;;;;;5099800;27;20233;-78
2022/06/04 04:45:37;;;;;;;11.00;10.60;;;16.80;99.90;;;;;;5098723;27;20233;-78
2022/06/04 04:48:07;;;;;;;10.80;10.45;;;16.80;99.90;;;;;;5099671;28;20247;-78
2022/06/04 04:53:06;;;;;;;11.07;10.68;;;16.80;99.90;;;;;;5098186;22;20245;-80
2022/06/04 04:55:36;;;;;;;10.95;10.55;;;16.90;99.90;;;;;;5077780;28;20277;-80
2022/06/04 04:58:04;;;;;;;11.00;10.60;;;16.90;99.90;;;;;;5078552;28;20324;-80
2022/06/04 05:00:33;;;;;;;11.00;10.60;;;16.90;99.90;;;;;;5078896;28;20261;-80
2022/06/04 05:03:01;;;;;;;11.15;10.75;;;17.00;99.90;;;;;;5058776;28;20262;-80
2022/06/04 05:05:29;;;;;;;10.95;10.55;;;17.00;99.90;;;;;;5061182;28;20227;-79
2022/06/04 05:07:57;;;;;;;10.60;10.30;;;17.10;99.90;;;;;;5077801;28;20234;-79
2022/06/04 05:10:26;;;;;;;10.75;10.45;;;17.20;99.90;;;;;;5081136;28;20207;-79
2022/06/04 05:12:56;;;;;;;11.13;10.73;;;17.20;99.90;;;;;;5080747;28;20283;-79
2022/06/04 05:15:25;;;;;;;10.60;10.30;;;17.20;99.90;;;;;;5080843;28;20199;-77
2022/06/04 05:17:53;;;;;;;10.82;10.52;;;17.30;99.90;;;;;;5080875;28;20215;-79
2022/06/04 05:20:21;;;;;;;10.82;10.52;;;17.30;99.90;;;;;;5080898;28;20223;-81
2022/06/04 05:22:49;;;;;;;10.73;10.43;;;17.30;99.90;;;;;;5080408;28;20237;-79
2022/06/04 05:25:17;;;;;;;10.70;10.40;;;17.30;99.90;;;;;;5079344;28;20230;-79
2022/06/04 05:27:45;;;;;;;10.80;10.50;;;17.30;99.90;;;;;;5070200;28;20261;-79
2022/06/04 05:30:14;;;;;;;10.80;10.50;;;17.30;99.90;;;;;;5071381;28;20218;-79
2022/06/04 05:32:42;;;;;;;11.00;10.70;;;17.30;99.90;;;;;;5079169;28;20231;-78
2022/06/04 05:35:10;;;;;;;10.57;10.27;;;17.40;99.90;;;;;;5079705;28;20307;-79
2022/06/04 05:37:38;;;;;;;10.63;10.32;;;17.40;99.90;;;;;;5079833;28;20210;-79
2022/06/04 05:40:07;;;;;;;10.23;9.93;;;17.50;99.90;;;;;;5079210;28;20250;-79
2022/06/04 05:42:35;;;;;;;10.70;10.40;;;17.50;99.90;;;;;;5075338;28;20235;-78
2022/06/04 05:45:03;;;;;;;10.55;10.25;;;17.60;99.90;;;;;;5074351;28;20238;-80
2022/06/04 05:47:32;;;;;;;10.35;10.05;;;17.60;99.90;;;;;;5073533;28;20265;-78
2022/06/04 05:49:59;;;;;;;10.60;10.30;;;17.50;99.90;;;;;;5071677;28;20250;-79
2022/06/04 05:52:27;;;;;;;10.40;10.10;;;17.50;99.90;;;;;;5070098;28;20243;-79
2022/06/04 05:54:55;;;;;;;10.63;10.32;;;17.60;99.90;;;;;;5070124;28;20225;-78
2022/06/04 05:57:22;;;;;;;10.48;10.18;;;17.60;99.90;;;;;;5069510;28;20282;-79
2022/06/04 05:59:50;;;;;;;10.45;10.15;;;17.70;99.90;;;;;;5070125;28;20627;-80
2022/06/04 06:02:18;;;;;;;10.32;10.02;;;17.70;99.90;;;;;;5066556;28;20231;-79
2022/06/04 06:04:47;;;;;;;10.97;10.67;;;17.70;99.90;;;;;;5062898;28;20448;-82
2022/06/04 06:07:15;;;;;;;10.80;10.50;;;17.80;99.90;;;;;;5067434;28;20250;-82
2022/06/04 06:09:43;;;;;;;10.57;10.27;;;17.90;99.90;;;;;;5065852;28;20230;-82
2022/06/04 06:12:12;;;;;;;10.50;10.20;;;18.00;99.90;;;;;;5073913;28;20235;-83
2022/06/04 06:14:40;;;;;;;10.43;10.13;;;18.00;99.90;;;;;;5065366;28;20231;-82
2022/06/04 06:17:08;;;;;;;10.50;10.20;;;18.10;99.90;;;;;;5070149;28;20242;-84
2022/06/04 06:19:35;;;;;;;10.52;10.23;;;18.20;99.90;;;;;;5068293;28;20238;-84
2022/06/04 06:22:05;;;;;;;10.40;10.10;;;18.30;99.90;;;;;;5064374;28;20254;-83
2022/06/04 06:24:33;;;;;;;10.60;10.30;;;18.20;99.90;;;;;;5062739;28;20230;-84
2022/06/04 06:27:02;;;;;;;10.45;10.15;;;18.30;99.90;;;;;;5062308;28;20231;-83
2022/06/04 06:29:32;;;;;;;10.50;10.20;;;18.30;99.90;;;;;;5063608;28;20241;-84
2022/06/04 06:32:01;;;;;;;10.25;9.95;;;18.40;99.90;;;;;;5062242;28;20288;-83
2022/06/04 06:34:29;;;;;;;10.40;10.10;;;18.40;99.90;;;;;;5062544;28;20241;-84
2022/06/04 06:36:57;;;;;;;9.98;9.68;;;18.40;99.90;;;;;;5062609;28;20230;-83
2022/06/04 06:39:27;;;;;;;10.18;9.88;;;18.50;99.90;;;;;;5062508;28;20226;-83
2022/06/04 06:41:55;;;;;;;10.20;9.90;;;18.60;99.90;;;;;;5061667;28;20265;-83
2022/06/04 06:44:23;;;;;;;10.13;9.82;;;18.60;99.90;;;;;;5062586;28;20214;-83
2022/06/04 06:46:50;;;;;;;10.27;9.98;;;18.70;99.90;;;;;;5061886;28;20238;-83
2022/06/04 06:49:21;;;;;;;10.20;9.90;;;18.70;99.90;;;;;;5072902;28;20227;-83
2022/06/04 06:51:53;;;;;;;10.25;9.95;;;18.80;99.90;;;;;;5081871;28;20288;-83
2022/06/04 06:54:23;;;;;;;10.00;9.70;;;18.80;99.90;;;;;;5083205;28;20229;-82
2022/06/04 06:56:54;;;;;;;10.23;9.93;;;18.90;99.90;;;;;;5083161;28;20249;-82
2022/06/04 06:59:24;;;;;;;10.10;9.80;;;19.00;99.90;;;;;;5076102;28;20230;-83
2022/06/04 07:01:52;;;;;;;10.15;9.85;;;19.00;99.90;;;;;;5061066;28;20247;-82
2022/06/04 07:04:22;;;;;;;10.25;9.95;;;19.00;99.90;;;;;;5062203;28;20254;-84
2022/06/04 07:06:53;;;;;;;10.00;9.70;;;18.90;99.90;;;;;;5057134;28;20237;-82
2022/06/04 07:09:26;;;;;;;10.10;9.80;;;18.80;99.90;;;;;;5061602;28;20242;-83
2022/06/04 07:11:55;;;;;;;10.05;9.75;;;18.60;99.90;;;;;;5062564;28;20251;-82
2022/06/04 07:14:24;;;;;;;10.02;9.73;;;18.60;99.90;;;;;;5069804;28;20249;-83
2022/06/04 07:16:53;;;;;;;9.80;9.50;;;18.60;99.90;;;;;;5066435;28;20239;-82
2022/06/04 07:19:23;;;;;;;9.90;9.60;;;18.60;99.90;;;;;;5063115;28;20234;-82
2022/06/04 07:21:51;;;;;;;9.70;9.40;;;18.60;99.90;;;;;;5063362;28;20281;-81
2022/06/04 07:24:19;;;;;;;10.10;9.80;;;18.60;99.90;;;;;;5062718;28;20229;-81
2022/06/04 07:26:47;;;;;;;10.00;9.70;;;18.70;99.90;;;;;;5062797;28;20243;-81
2022/06/04 07:29:16;;;;;;;9.88;9.57;;;18.60;99.90;;;;;;5063975;28;20262;-82
2022/06/04 07:31:44;;;;;;;9.90;9.60;;;18.60;99.90;;;;;;5063679;28;20293;-81
2022/06/04 07:34:11;;;;;;;9.75;9.45;;;18.60;99.90;;;;;;5062098;28;20318;-82
2022/06/04 07:36:42;;;;;;;9.80;9.50;;;18.70;99.90;;;;;;5062257;28;20262;-81
2022/06/04 07:39:11;;;;;;;9.80;9.50;;;18.70;99.90;;;;;;5059969;28;20233;-81
2022/06/04 07:41:43;;;;;;;9.60;9.30;;;18.90;99.90;;;;;;5055917;28;20232;-81
2022/06/04 07:44:12;;;;;;;9.50;9.20;;;19.00;99.90;;;;;;5042890;28;20238;-78
2022/06/04 07:46:42;;;;;;;9.60;9.30;;;19.20;99.90;;;;;;5054573;28;20239;-78
2022/06/04 07:49:11;;;;;;;9.90;9.60;;;19.20;99.90;;;;;;5049612;28;20226;-80
2022/06/04 07:51:42;;;;;;;9.65;9.35;;;19.20;99.90;;;;;;5056398;28;20238;-80
2022/06/04 07:54:11;;;;;;;9.57;9.27;;;19.30;99.90;;;;;;5051564;28;20251;-80
2022/06/04 07:56:40;;;;;;;9.60;9.30;;;19.30;99.90;;;;;;5065164;28;20222;-80
2022/06/04 07:59:13;;;;;;;9.50;9.20;;;19.40;99.90;;;;;;5071028;28;20290;-82
2022/06/04 08:01:42;;;;;;;9.30;9.00;;;19.30;99.90;;;;;;5059297;28;20245;-81
2022/06/04 08:04:11;;;;;;;9.20;8.90;;;19.50;99.90;;;;;;5060387;28;20227;-81
2022/06/04 08:06:39;;;;;;;9.45;9.15;;;19.60;99.90;;;;;;5059876;28;20353;-80
2022/06/04 08:09:07;;;;;;;9.30;9.00;;;19.70;99.90;;;;;;5060314;28;20277;-81
2022/06/04 08:11:36;;;;;;;9.60;9.30;;;19.80;99.90;;;;;;5061624;28;20254;-82
2022/06/04 08:14:15;;;;;;;9.60;9.30;;;19.80;99.90;;;;;;5061734;28;20227;-82
2022/06/04 08:16:51;;;;;;;9.50;9.20;;;19.90;99.90;;;;;;5060980;28;20234;-82
2022/06/04 08:19:19;;;;;;;9.70;9.40;;;20.00;99.90;;;;;;5066781;28;20234;-82
2022/06/04 08:21:47;;;;;;;9.60;9.30;;;20.00;99.90;;;;;;5079340;28;20219;-81
2022/06/04 08:24:16;;;;;;;9.65;9.35;;;20.00;99.90;;;;;;5091871;28;20214;-82
2022/06/04 08:26:46;;;;;;;9.68;9.38;;;20.10;99.90;;;;;;5079975;28;20235;-82
2022/06/04 08:29:14;;;;;;;9.82;9.52;;;20.00;99.90;;;;;;5060751;28;20322;-81
2022/06/04 08:31:42;;;;;;;9.75;9.45;;;20.10;99.90;;;;;;5060280;28;20258;-81
2022/06/04 08:34:11;;;;;;;9.70;9.40;;;20.20;99.90;;;;;;5063878;28;20242;-82
2022/06/04 08:36:41;;;;;;;10.00;9.70;;;20.20;99.90;;;;;;5080188;28;20215;-79
2022/06/04 08:39:10;;;;;;;9.70;9.40;;;20.30;99.90;;;;;;5080585;28;20203;-78
2022/06/04 08:42:01;;;;;;;9.43;9.13;;;20.40;99.90;;;;;;5080067;28;20230;-79
2022/06/04 08:44:33;;;;;;;9.30;9.00;;;20.30;99.90;;;;;;5074515;28;20281;-81
2022/06/04 08:47:11;;;;;;;9.50;9.20;;;20.30;99.90;;;;;;5062315;28;20330;-81
2022/06/04 08:49:48;;;;;;;9.43;9.13;;;20.20;99.90;;;;;;5060079;28;20241;-79
2022/06/04 08:52:20;;;;;;;9.25;8.95;;;20.20;99.90;;;;;;5060431;28;20261;-80
2022/06/04 08:57:44;;;;;;;9.63;9.32;;;20.20;99.90;;;;;;5059542;28;20227;-80
2022/06/04 09:00:20;;;;;;;9.75;9.45;;;20.20;99.90;;;;;;5059851;28;20234;-81
2022/06/04 09:03:02;;;;;;;9.50;9.20;;;20.30;99.90;;;;;;5059605;28;20234;-80
2022/06/04 09:05:51;;;;;;;9.80;9.50;;;20.30;99.90;;;;;;5058047;28;20281;-80
2022/06/04 09:08:28;;;;;;;9.55;9.25;;;20.40;99.90;;;;;;5059235;28;20258;-80
2022/06/04 09:10:59;;;;;;;9.40;9.10;;;20.30;99.90;;;;;;5059389;28;20273;-81
2022/06/04 09:13:34;;;;;;;9.48;9.18;;;20.10;99.90;;;;;;5059868;28;20238;-80
2022/06/04 09:16:09;;;;;;;9.60;9.30;;;20.10;99.90;;;;;;5059846;28;20207;-80
2022/06/04 09:18:37;;;;;;;9.40;9.10;;;20.00;99.90;;;;;;5068454;28;20234;-79
2022/06/04 09:21:10;;;;;;;9.80;9.50;;;20.10;99.90;;;;;;5074737;28;20243;-79
2022/06/04 09:23:48;;;;;;;9.60;9.30;;;20.10;99.90;;;;;;5062539;28;20230;-79
2022/06/04 09:26:27;;;;;;;9.45;9.15;;;20.10;99.90;;;;;;5058448;28;20246;-81
2022/06/04 09:29:10;;;;;;;9.65;9.35;;;20.10;99.90;;;;;;5056637;28;20266;-79
2022/06/04 09:31:46;;;;;;;9.80;9.50;;;20.00;99.90;;;;;;5056941;28;20269;-78
2022/06/04 09:34:19;;;;;;;9.50;9.20;;;20.00;99.90;;;;;;5057546;28;20250;-79
2022/06/04 09:36:49;;;;;;;9.57;9.27;;;20.10;99.90;;;;;;5058177;28;20231;-81
2022/06/04 09:39:24;;;;;;;9.60;9.30;;;20.10;99.90;;;;;;5051564;28;20250;-81
2022/06/04 09:41:57;;;;;;;9.80;9.50;;;20.20;99.90;;;;;;5039015;28;20291;-83
2022/06/04 09:44:26;;;;;;;9.80;9.50;;;20.40;99.90;;;;;;5037892;28;20228;-83
2022/06/04 09:46:59;;;;;;;9.82;9.52;;;20.50;99.90;;;;;;5037464;28;20242;-82
2022/06/04 09:49:42;;;;;;;9.70;9.40;;;20.70;99.90;;;;;;5038225;28;20251;-81
2022/06/04 09:52:28;;;;;;;9.68;9.38;;;20.90;99.90;;;;;;5038646;28;20301;-81
2022/06/04 09:55:03;;;;;;;9.68;9.38;;;21.10;99.90;;;;;;5058184;28;20704;-81
2022/06/04 09:57:35;;;;;;;9.52;9.23;;;21.10;99.90;;;;;;5050544;28;21085;-81
2022/06/04 10:00:08;;;;;;;9.32;9.02;;;21.30;99.90;;;;;;5054559;28;20279;-81
2022/06/04 10:02:38;;;;;;;9.45;9.15;;;21.40;99.90;;;;;;5056807;28;20254;-81
2022/06/04 10:05:19;;;;;;;9.60;9.30;;;21.50;99.90;;;;;;5057660;28;20808;-82
2022/06/04 10:07:56;;;;;;;9.68;9.38;;;21.70;99.90;;;;;;5058656;28;20234;-81
2022/06/04 10:10:30;;;;;;;9.45;9.15;;;21.80;99.90;;;;;;5058978;28;20238;-82
2022/06/04 10:15:57;;;;;;;9.43;9.13;;;22.50;99.90;;;;;;5058816;28;20234;-81
2022/06/04 10:18:29;;;;;;;9.50;9.20;;;23.00;99.90;;;;;;5059619;28;20239;-83
2022/06/04 10:21:01;;;;;;;9.80;9.50;;;23.40;99.90;;;;;;5065504;28;20385;-80
2022/06/04 10:23:42;;;;;;;9.70;9.40;;;23.90;99.90;;;;;;5063453;28;20235;-80
2022/06/04 10:27:00;;;;;;;9.75;9.45;;;24.30;99.90;;;;;;5062713;28;20304;-79
2022/06/04 10:30:11;;;;;;;9.77;9.48;;;25.00;99.90;;;;;;4997685;28;20225;-80
2022/06/04 10:32:58;;;;;;;9.60;9.30;;;25.00;99.90;;;;;;4998739;28;20236;-80
2022/06/04 10:35:45;;;;;;;9.73;9.43;;;24.90;99.90;;;;;;5059759;28;20350;-80
2022/06/04 10:38:27;;;;;;;9.70;9.40;;;24.90;99.90;;;;;;5059757;28;20253;-80
2022/06/04 10:44:31;;;;;;;9.70;9.40;;;24.50;99.90;;;;;;5058910;28;20238;-80
2022/06/04 10:47:12;;;;;;;9.90;9.60;;;24.60;99.90;;;;;;5060890;28;20332;-81
2022/06/04 10:50:10;;;;;;;9.68;9.38;;;24.50;99.90;;;;;;5057713;28;20301;-81
2022/06/04 10:52:45;;;;;;;9.40;9.10;;;24.40;99.90;;;;;;5059902;28;20243;-81
2022/06/04 10:55:24;;;;;;;9.57;9.27;;;24.00;99.90;;;;;;5093609;22;20260;-81
2022/06/04 10:58:21;;;;;;;9.23;8.93;;;23.50;99.90;;;;;;5086768;28;20222;-80
2022/06/04 11:00:57;;;;;;;9.63;9.32;;;23.40;99.90;;;;;;5073025;28;20276;-81
2022/06/04 11:03:36;;;;;;;9.65;9.35;;;23.30;99.90;;;;;;5076998;28;20340;-81
2022/06/04 11:06:13;;;;;;;9.73;9.43;;;23.10;99.90;;;;;;5082101;28;20250;-82
2022/06/04 11:08:53;;;;;;;9.73;9.43;;;22.90;99.90;;;;;;5085264;28;20241;-82
2022/06/04 11:11:30;;;;;;;9.90;9.60;;;22.90;99.90;;;;;;5083620;28;20241;-83
2022/06/04 11:14:35;;;;;;;9.63;9.32;;;22.60;99.90;;;;;;5080359;28;20300;-82
2022/06/04 11:20:09;;;;;;;9.77;9.48;;;22.70;99.90;;;;;;5085736;28;20277;-83
2022/06/04 11:22:39;;;;;;;9.60;9.30;;;22.60;99.90;;;;;;5084262;28;20986;-83
2022/06/04 11:25:25;;;;;;;9.57;9.27;;;22.40;99.90;;;;;;5083483;28;20268;-83
2022/06/04 11:27:56;;;;;;;10.00;9.70;;;22.40;99.90;;;;;;5084665;28;20237;-83
2022/06/04 11:31:08;;;;;;;10.02;9.73;;;22.40;99.90;;;;;;5085088;28;20289;-83
2022/06/04 11:34:05;;;;;;;10.00;9.70;;;22.10;99.90;;;;;;5088169;28;20272;-82
2022/06/04 11:36:55;;;;;;;10.20;9.90;;;21.80;99.90;;;;;;5089255;28;20260;-82
2022/06/04 11:40:30;;;;;;;10.02;9.73;;;21.70;99.90;;;;;;5096371;28;20230;-83
2022/06/04 11:43:08;;;;;;;10.20;9.90;;;21.70;99.90;;;;;;5093746;27;20214;-82
2022/06/04 11:46:06;;;;;;;9.90;9.60;;;21.80;99.90;;;;;;5101629;27;20240;-82
2022/06/04 11:49:13;;;;;;;9.88;9.57;;;21.90;99.90;;;;;;5091214;28;20222;-83
2022/06/04 11:52:17;;;;;;;9.80;9.50;;;21.80;99.90;;;;;;5085766;28;20238;-82
2022/06/04 11:55:09;;;;;;;9.90;9.60;;;21.50;99.90;;;;;;5084713;28;20234;-81
2022/06/04 11:58:09;;;;;;;10.00;9.70;;;21.20;99.90;;;;;;5085053;28;20277;-84
2022/06/04 12:00:44;;;;;;;9.93;9.63;;;21.30;99.90;;;;;;5093082;28;20292;-83
2022/06/04 12:03:23;;;;;;;10.30;10.00;;;21.50;99.90;;;;;;5092194;28;20230;-82
2022/06/04 12:06:10;;;;;;;10.20;9.90;;;21.40;99.90;;;;;;5089698;28;21073;-82
2022/06/04 12:08:48;;;;;;;10.20;9.90;;;21.50;99.90;;;;;;5071647;28;20223;-81
2022/06/04 12:11:34;;;;;;;10.10;9.80;;;21.70;99.90;;;;;;5068334;28;20238;-84
2022/06/04 12:14:14;;;;;;;10.05;9.75;;;22.00;99.90;;;;;;5064896;28;20238;-84
2022/06/04 12:17:20;;;;;;;10.00;9.70;;;22.40;99.90;;;;;;5064801;28;20333;-87
2022/06/04 12:26:07;;;;;;;10.05;9.75;;;23.60;99.90;;;;;;5060886;28;20229;-87
2022/06/04 12:28:44;;;;;;;9.85;9.55;;;23.70;99.90;;;;;;5060384;28;20245;-87
2022/06/04 12:31:12;;;;;;;9.80;9.50;;;23.50;99.90;;;;;;5065231;28;20266;-87
2022/06/04 12:33:52;;;;;;;10.07;9.77;;;23.50;99.90;;;;;;5076063;28;20590;-87
2022/06/04 12:36:31;;;;;;;10.00;9.70;;;23.50;99.90;;;;;;5081428;28;20239;-87
2022/06/04 12:39:09;;;;;;;9.50;9.20;;;23.40;99.90;;;;;;5081551;28;20226;-87
2022/06/04 12:41:55;;;;;;;9.82;9.52;;;23.10;99.90;;;;;;5078133;28;20263;-83
2022/06/04 12:44:38;;;;;;;10.10;9.80;;;22.60;99.90;;;;;;5067685;28;20240;-83
2022/06/04 12:47:23;;;;;;;10.20;9.90;;;22.50;99.90;;;;;;5085585;28;20756;-83
2022/06/04 12:50:04;;;;;;;9.95;9.65;;;22.40;99.90;;;;;;5084188;28;20228;-84
2022/06/04 12:52:46;;;;;;;10.07;9.77;;;22.00;99.90;;;;;;5076810;28;20221;-82
2022/06/04 12:58:31;;;;;;;9.80;9.50;;;21.60;99.90;;;;;;5083786;28;20232;-81
2022/06/04 13:01:14;;;;;;;10.00;9.70;;;21.60;99.90;;;;;;5083470;28;20246;-83
2022/06/04 13:03:56;;;;;;;10.00;9.70;;;21.70;99.90;;;;;;5081355;28;20241;-82
2022/06/04 13:06:45;;;;;;;9.85;9.55;;;21.80;99.90;;;;;;5083138;28;20233;-81
2022/06/04 13:09:38;;;;;;;10.00;9.70;;;21.90;99.90;;;;;;5082422;28;20222;-82
2022/06/04 13:12:18;;;;;;;10.00;9.70;;;22.00;99.90;;;;;;5083210;28;20225;-81
2022/06/04 13:14:55;;;;;;;10.00;9.70;;;22.30;99.90;;;;;;5083126;28;20221;-81
2022/06/04 13:17:42;;;;;;;9.82;9.52;;;22.70;99.90;;;;;;5084731;28;20218;-81
2022/06/04 13:20:46;;;;;;;9.90;9.60;;;23.00;99.90;;;;;;5084685;28;20252;-83
2022/06/04 13:23:34;;;;;;;9.93;9.63;;;23.60;99.90;;;;;;5073162;28;20230;-82
2022/06/04 13:26:31;;;;;;;10.23;9.93;;;24.10;99.90;;;;;;5080235;28;20287;-82
2022/06/04 13:29:00;;;;;;;10.40;10.10;;;24.90;99.90;;;;;;5066734;28;20242;-83
2022/06/04 13:31:36;;;;;;;10.30;10.00;;;25.60;99.90;;;;;;5066417;28;20229;-82
2022/06/04 13:34:15;;;;;;;10.40;10.10;;;26.20;99.90;;;;;;5071000;28;20239;-83
2022/06/04 13:36:44;;;;;;;10.20;9.90;;;26.40;99.90;;;;;;5075387;28;20233;-81
2022/06/04 13:39:24;;;;;;;10.10;9.80;;;26.40;99.90;;;;;;5083975;28;20229;-82
2022/06/04 13:42:10;;;;;;;9.77;9.48;;;26.20;99.90;;;;;;5075980;28;20264;-83
2022/06/04 13:44:40;;;;;;;9.95;9.65;;;26.00;99.90;;;;;;5081930;28;20249;-83
2022/06/04 13:47:25;;;;;;;9.85;9.55;;;26.00;99.90;;;;;;5083071;28;20243;-83
2022/06/04 13:50:22;;;;;;;10.15;9.85;;;25.90;99.90;;;;;;5083615;28;20230;-83
2022/06/04 13:53:01;;;;;;;10.02;9.73;;;26.00;99.90;;;;;;5082485;28;20226;-82
2022/06/04 13:55:38;;;;;;;10.35;10.05;;;26.30;99.90;;;;;;5088605;28;20230;-83
2022/06/04 13:58:20;;;;;;;10.32;10.02;;;26.60;99.90;;;;;;5087727;28;20237;-84
2022/06/04 14:00:53;;;;;;;10.23;9.93;;;26.80;99.90;;;;;;5084645;28;20220;-82
2022/06/04 14:03:35;;;;;;;10.77;10.48;;;27.10;99.90;;;;;;5084003;28;20226;-83
2022/06/04 14:06:02;;;;;;;10.52;10.23;;;27.30;99.90;;;;;;5083765;28;20225;-82
2022/06/04 14:08:34;;;;;;;10.50;10.20;;;27.40;99.90;;;;;;5084623;28;20229;-84
2022/06/04 14:11:18;;;;;;;10.90;10.60;;;27.50;99.90;;;;;;5083349;28;20225;-82